createdAt,value
2022-10-19T00:02:05.553Z,14.30
2022-10-19T00:05:29.382Z,15.67
2022-10-19T00:08:53.592Z,15.25
2022-10-19T00:12:09.523Z,15.80
2022-10-19T00:15:29.411Z,16.13
2022-10-19T00:18:50.427Z,15.53
2022-10-19T00:22:13.109Z,16.83
2022-10-19T00:25:39.363Z,15.65
2022-10-19T00:29:00.788Z,15.60
2022-10-19T00:32:20.400Z,16.15
2022-10-19T00:35:43.347Z,15.47
2022-10-19T00:39:01.503Z,16.00
2022-10-19T00:42:12.561Z,14.77
2022-10-19T00:45:19.571Z,16.40
2022-10-19T00:48:29.887Z,16.20
2022-10-19T00:51:58.072Z,16.33
2022-10-19T00:55:20.081Z,15.33
2022-10-19T00:58:42.123Z,15.88
2022-10-19T01:02:05.048Z,15.93
2022-10-19T01:05:21.471Z,15.60
2022-10-19T01:08:34.909Z,16.87
2022-10-19T01:12:27.181Z,16.30
2022-10-19T01:15:48.858Z,15.85
2022-10-19T01:18:59.020Z,15.93
2022-10-19T01:22:28.238Z,15.77
2022-10-19T01:26:06.375Z,15.40
2022-10-19T01:29:18.687Z,15.33
2022-10-19T01:32:33.296Z,16.45
2022-10-19T01:36:12.311Z,15.13
2022-10-19T01:39:29.366Z,15.85
2022-10-19T01:42:46.904Z,16.07
2022-10-19T01:46:03.867Z,15.80
2022-10-19T01:49:30.092Z,16.05
2022-10-19T01:52:41.284Z,15.90
2022-10-19T01:55:59.148Z,15.43
2022-10-19T01:59:20.128Z,16.47
2022-10-19T02:02:31.299Z,15.70
2022-10-19T02:05:36.636Z,15.00
2022-10-19T02:08:56.136Z,15.45
2022-10-19T02:12:34.355Z,15.70
2022-10-19T02:16:15.175Z,14.77
2022-10-19T02:19:26.171Z,15.93
2022-10-19T02:22:32.580Z,15.18
2022-10-19T02:25:40.447Z,15.10
2022-10-19T02:28:54.787Z,14.65
2022-10-19T02:32:04.622Z,15.10
2022-10-19T02:35:28.102Z,15.00
2022-10-19T02:38:55.241Z,14.55
2022-10-19T02:42:24.635Z,15.05
2022-10-19T02:45:56.289Z,14.32
2022-10-19T02:49:13.839Z,13.57
2022-10-19T02:52:30.485Z,13.70
2022-10-19T02:55:48.106Z,15.60
2022-10-19T02:59:09.168Z,14.73
2022-10-19T03:02:27.147Z,15.30
2022-10-19T03:05:50.094Z,14.57
2022-10-19T03:09:23.982Z,14.43
2022-10-19T03:12:45.739Z,14.43
2022-10-19T03:15:55.680Z,14.38
2022-10-19T03:19:18.953Z,14.38
2022-10-19T03:22:39.709Z,14.77
2022-10-19T03:26:02.964Z,15.33
2022-10-19T03:29:37.020Z,15.13
2022-10-19T03:32:44.614Z,15.07
2022-10-19T03:36:21.112Z,14.93
2022-10-19T03:39:38.128Z,15.03
2022-10-19T03:43:01.016Z,14.70
2022-10-19T03:46:24.066Z,14.43
2022-10-19T03:49:46.941Z,14.18
2022-10-19T03:53:14.134Z,14.05
2022-10-19T03:56:37.807Z,13.57
2022-10-19T04:00:00.916Z,13.67
2022-10-19T04:03:20.218Z,13.30
2022-10-19T04:06:30.136Z,13.77
2022-10-19T04:09:33.778Z,13.40
2022-10-19T04:13:40.992Z,13.03
2022-10-19T04:16:48.581Z,13.10
2022-10-19T04:20:03.079Z,13.38
2022-10-19T04:23:24.802Z,13.93
2022-10-19T04:26:45.859Z,13.90
2022-10-19T04:30:08.827Z,14.23
2022-10-19T04:33:29.774Z,13.53
2022-10-19T04:36:52.808Z,13.52
2022-10-19T04:40:15.128Z,14.52
2022-10-19T04:43:18.257Z,13.70
2022-10-19T04:46:21.921Z,14.30
2022-10-19T04:49:31.394Z,13.37
2022-10-19T04:52:46.858Z,13.30
2022-10-19T04:56:03.067Z,13.60
2022-10-19T04:59:36.729Z,13.75
2022-10-19T05:03:01.425Z,13.67
2022-10-19T05:06:11.545Z,13.97
2022-10-19T05:09:37.656Z,13.85
2022-10-19T05:13:04.736Z,14.00
2022-10-19T05:16:32.623Z,14.05
2022-10-19T05:19:54.441Z,15.47
2022-10-19T05:23:15.443Z,14.97
2022-10-19T05:26:34.385Z,14.30
2022-10-19T05:29:44.237Z,15.10
2022-10-19T05:32:47.305Z,15.25
2022-10-19T05:35:53.805Z,14.87
2022-10-19T05:39:08.893Z,14.90
2022-10-19T05:42:31.497Z,14.98
2022-10-19T05:45:41.651Z,14.82
2022-10-19T05:48:46.807Z,14.70
2022-10-19T05:56:57.583Z,14.73
2022-10-19T06:06:31.733Z,14.05
2022-10-19T06:10:32.399Z,13.57
2022-10-19T06:20:01.877Z,13.87
2022-10-19T06:24:03.298Z,13.00
2022-10-19T06:32:34.660Z,11.75
2022-10-19T06:35:44.947Z,12.17
2022-10-19T06:39:02.221Z,12.93
2022-10-19T06:48:21.917Z,11.30
2022-10-19T06:51:41.972Z,11.40
2022-10-19T06:56:05.733Z,11.47
2022-10-19T07:04:27.821Z,11.40
2022-10-19T07:07:30.903Z,10.98
2022-10-19T07:11:14.996Z,11.13
2022-10-19T07:14:43.695Z,11.83
2022-10-19T07:18:41.605Z,10.93
2022-10-19T07:26:55.979Z,12.30
2022-10-19T07:30:06.335Z,12.25
2022-10-19T07:33:58.411Z,12.30
2022-10-19T07:37:11.459Z,12.43
2022-10-19T07:40:20.673Z,12.52
2022-10-19T07:43:46.919Z,12.23
2022-10-19T07:47:15.748Z,12.43
2022-10-19T07:50:35.831Z,12.17
2022-10-19T07:53:52.669Z,12.23
2022-10-19T07:56:58.210Z,12.15
2022-10-19T08:00:30.105Z,11.95
2022-10-19T08:07:43.883Z,10.70
2022-10-19T08:11:26.286Z,10.73
2022-10-19T08:14:57.533Z,10.52
2022-10-19T08:23:10.600Z,9.98
2022-10-19T08:27:03.129Z,9.50
2022-10-19T08:30:18.509Z,9.30
2022-10-19T08:33:29.804Z,8.93
2022-10-19T08:36:56.729Z,9.35
2022-10-19T08:40:47.885Z,9.02
2022-10-19T08:44:45.406Z,12.67
2022-10-19T08:48:37.144Z,9.57
2022-10-19T08:57:33.753Z,8.10
2022-10-19T09:01:42.011Z,7.88
2022-10-19T09:05:31.302Z,6.90
2022-10-19T09:08:39.127Z,5.93
2022-10-19T09:12:23.417Z,5.20
2022-10-19T09:15:44.627Z,4.10
2022-10-19T09:22:21.730Z,3.73
2022-10-19T09:25:35.270Z,3.90
2022-10-19T09:28:58.635Z,3.50
2022-10-19T09:32:40.466Z,3.42
2022-10-19T09:35:58.356Z,4.10
2022-10-19T09:39:14.484Z,3.83
2022-10-19T09:42:30.867Z,4.50
2022-10-19T09:45:57.466Z,4.90
2022-10-19T09:49:07.251Z,3.85
2022-10-19T09:52:55.189Z,4.85
2022-10-19T09:56:54.123Z,5.13
2022-10-19T10:00:47.777Z,4.80
2022-10-19T10:04:20.272Z,4.13
2022-10-19T10:08:41.105Z,4.35
2022-10-19T10:13:07.114Z,4.10
2022-10-19T10:16:43.512Z,3.70
2022-10-19T10:20:23.636Z,3.67
2022-10-19T10:24:32.323Z,3.90
2022-10-19T10:28:19.209Z,3.38
2022-10-19T10:31:44.751Z,3.03
2022-10-19T10:35:16.750Z,1.57
2022-10-19T10:38:55.480Z,1.30
2022-10-19T10:42:39.103Z,1.42
2022-10-19T10:46:47.587Z,1.23
2022-10-19T10:50:20.630Z,1.50
2022-10-19T10:53:54.900Z,1.60
2022-10-19T10:58:15.115Z,2.07
2022-10-19T11:02:09.423Z,2.78
2022-10-19T11:06:09.261Z,2.05
2022-10-19T11:10:10.232Z,1.83
2022-10-19T11:19:25.065Z,1.37
2022-10-19T11:23:11.153Z,1.20
2022-10-19T11:27:00.992Z,1.40
2022-10-19T11:30:33.356Z,1.73
2022-10-19T11:34:28.057Z,1.50
2022-10-19T11:38:18.388Z,1.77
2022-10-19T11:46:32.316Z,1.55
2022-10-19T11:50:03.160Z,1.42
2022-10-19T11:53:18.903Z,2.37
2022-10-19T11:57:03.978Z,1.77
2022-10-19T12:01:02.763Z,1.45
2022-10-19T12:04:55.416Z,1.30
2022-10-19T12:08:32.456Z,1.30
2022-10-19T12:12:31.125Z,1.33
2022-10-19T12:16:20.934Z,1.40
2022-10-19T12:19:45.147Z,1.42
2022-10-19T12:23:31.509Z,1.40
2022-10-19T12:26:38.171Z,1.90
2022-10-19T12:29:49.980Z,1.80
2022-10-19T12:33:01.997Z,1.80
2022-10-19T12:36:53.205Z,1.60
2022-10-19T12:40:09.504Z,1.90
2022-10-19T12:43:33.298Z,1.70
2022-10-19T12:46:51.767Z,1.70
2022-10-19T12:50:00.138Z,2.00
2022-10-19T12:53:07.827Z,1.60
2022-10-19T12:56:22.960Z,1.83
2022-10-19T12:59:38.730Z,1.40
2022-10-19T13:03:28.984Z,1.60
2022-10-19T13:07:01.596Z,1.50
2022-10-19T13:10:45.718Z,1.67
2022-10-19T13:14:26.670Z,1.70
2022-10-19T13:17:51.917Z,1.60
2022-10-19T13:21:09.851Z,1.93
2022-10-19T13:24:36.815Z,1.50
2022-10-19T13:28:58.686Z,1.70
2022-10-19T13:32:53.529Z,1.58
2022-10-19T13:36:19.674Z,2.55
2022-10-19T13:39:30.678Z,2.03
2022-10-19T13:42:46.671Z,2.10
2022-10-19T13:46:30.148Z,2.00
2022-10-19T13:50:11.527Z,2.00
2022-10-19T13:53:39.711Z,1.95
2022-10-19T13:57:19.210Z,2.87
2022-10-19T14:00:36.288Z,3.40
2022-10-19T14:04:10.252Z,2.70
2022-10-19T14:07:32.630Z,3.28
2022-10-19T14:11:01.612Z,3.10
2022-10-19T14:14:28.522Z,2.70
2022-10-19T14:17:42.949Z,3.03
2022-10-19T14:21:06.430Z,3.08
2022-10-19T14:24:53.799Z,3.30
2022-10-19T14:28:10.754Z,3.35
2022-10-19T14:31:22.503Z,3.50
2022-10-19T14:34:37.248Z,2.90
2022-10-19T14:37:45.230Z,2.97
2022-10-19T14:41:06.747Z,3.13
2022-10-19T14:44:58.400Z,2.80
2022-10-19T14:48:17.025Z,2.50
2022-10-19T14:51:38.982Z,2.67
2022-10-19T14:54:51.539Z,2.25
2022-10-19T14:57:54.759Z,3.58
2022-10-19T15:01:14.225Z,2.83
2022-10-19T15:04:43.264Z,2.60
2022-10-19T15:08:00.373Z,3.07
2022-10-19T15:11:33.338Z,2.53
2022-10-19T15:14:38.288Z,2.17
2022-10-19T15:18:02.818Z,2.70
2022-10-19T15:21:33.534Z,2.67
2022-10-19T15:25:11.491Z,3.03
2022-10-19T15:28:34.967Z,2.35
2022-10-19T15:31:40.719Z,2.40
2022-10-19T15:35:07.553Z,2.60
2022-10-19T15:38:28.458Z,2.57
2022-10-19T15:41:51.338Z,2.73
2022-10-19T15:45:12.174Z,2.80
2022-10-19T15:48:41.611Z,2.60
2022-10-19T15:51:54.440Z,3.30
2022-10-19T15:55:10.459Z,2.60
2022-10-19T15:58:34.197Z,3.17
2022-10-19T16:02:00.421Z,3.00
2022-10-19T16:05:24.466Z,3.17
2022-10-19T16:08:41.362Z,2.97
2022-10-19T16:12:03.311Z,2.53
2022-10-19T16:15:30.141Z,2.93
2022-10-19T16:18:50.200Z,3.00
2022-10-19T16:22:10.276Z,2.80
2022-10-19T16:25:33.426Z,3.03
2022-10-19T16:28:44.214Z,2.60
2022-10-19T16:31:47.500Z,2.57
2022-10-19T16:35:40.391Z,2.78
2022-10-19T16:38:43.539Z,2.72
2022-10-19T16:41:52.090Z,2.80
2022-10-19T16:45:03.032Z,3.10
2022-10-19T16:48:24.179Z,3.63
2022-10-19T16:51:39.210Z,3.40
2022-10-19T16:55:02.004Z,3.45
2022-10-19T16:58:10.056Z,3.45
2022-10-19T17:01:19.457Z,3.47
2022-10-19T17:04:29.642Z,3.30
2022-10-19T17:07:33.286Z,3.92
2022-10-19T17:10:42.513Z,3.53
2022-10-19T17:13:53.149Z,4.05
2022-10-19T17:16:56.418Z,3.90
2022-10-19T17:20:13.862Z,4.00
2022-10-19T17:23:41.958Z,3.30
2022-10-19T17:27:17.099Z,3.65
2022-10-19T17:30:33.110Z,3.40
2022-10-19T17:33:36.955Z,3.93
2022-10-19T17:36:46.461Z,3.57
2022-10-19T17:39:56.707Z,3.60
2022-10-19T17:43:19.935Z,4.05
2022-10-19T17:46:40.589Z,3.75
2022-10-19T17:49:51.588Z,4.07
2022-10-19T17:53:08.990Z,4.60
2022-10-19T17:56:38.964Z,4.30
2022-10-19T17:59:52.775Z,4.10
2022-10-19T18:03:19.027Z,3.72
2022-10-19T18:06:43.657Z,3.70
2022-10-19T18:10:06.839Z,4.27
2022-10-19T18:13:14.919Z,3.80
2022-10-19T18:16:40.328Z,3.75
2022-10-19T18:19:57.367Z,3.50
2022-10-19T18:23:04.039Z,4.40
2022-10-19T18:26:16.023Z,4.67
2022-10-19T18:29:32.236Z,4.70
2022-10-19T18:32:49.504Z,4.10
2022-10-19T18:36:01.454Z,4.00
2022-10-19T18:39:11.174Z,4.07
2022-10-19T18:42:16.644Z,4.20
2022-10-19T18:45:27.354Z,4.20
2022-10-19T18:48:45.777Z,3.67
2022-10-19T18:52:09.716Z,3.90
2022-10-19T18:55:38.429Z,3.70
2022-10-19T18:58:49.561Z,4.37
2022-10-19T19:01:54.943Z,3.85
2022-10-19T19:05:09.201Z,4.45
2022-10-19T19:08:16.802Z,4.40
2022-10-19T19:11:28.773Z,4.20
2022-10-19T19:14:34.416Z,4.93
2022-10-19T19:17:41.964Z,7.13
2022-10-19T19:20:48.798Z,4.60
2022-10-19T19:24:14.773Z,4.53
2022-10-19T19:27:46.432Z,3.67
2022-10-19T19:31:04.737Z,4.30
2022-10-19T19:34:21.645Z,4.40
2022-10-19T19:37:50.597Z,3.88
2022-10-19T19:40:53.736Z,4.00
2022-10-19T19:44:00.523Z,3.50
2022-10-19T19:47:11.547Z,3.80
2022-10-19T19:50:28.748Z,3.85
2022-10-19T19:53:48.029Z,3.22
2022-10-19T19:57:18.221Z,2.92
2022-10-19T20:00:36.580Z,3.20
2022-10-19T20:03:47.067Z,3.43
2022-10-19T20:06:54.685Z,3.22
2022-10-19T20:10:02.520Z,3.58
2022-10-19T20:13:19.898Z,3.33
2022-10-19T20:16:37.844Z,3.40
2022-10-19T20:19:57.717Z,3.20
2022-10-19T20:23:25.738Z,3.30
2022-10-19T20:26:29.795Z,3.28
2022-10-19T20:29:34.561Z,2.85
2022-10-19T20:32:41.606Z,3.30
2022-10-19T20:35:51.091Z,3.07
2022-10-19T20:38:59.857Z,3.55
2022-10-19T20:42:03.124Z,3.20
2022-10-19T20:45:07.403Z,3.60
2022-10-19T20:48:30.488Z,3.20
2022-10-19T20:51:59.563Z,2.97
2022-10-19T20:55:20.570Z,3.28
2022-10-19T20:58:37.497Z,3.40
2022-10-19T21:01:57.440Z,3.17
2022-10-19T21:05:17.613Z,3.27
2022-10-19T21:08:42.534Z,3.07
2022-10-19T21:12:04.556Z,3.50
2022-10-19T21:15:26.780Z,3.10
2022-10-19T21:18:29.752Z,3.22
2022-10-19T21:21:46.207Z,3.00
2022-10-19T21:24:52.676Z,3.20
2022-10-19T21:28:15.462Z,3.10
2022-10-19T21:31:45.219Z,2.75
2022-10-19T21:35:05.806Z,2.88
2022-10-19T21:38:28.326Z,3.00
2022-10-19T21:41:44.490Z,2.80
2022-10-19T21:45:28.767Z,2.85
2022-10-19T21:48:36.269Z,3.50
2022-10-19T21:51:54.070Z,2.80
2022-10-19T21:55:10.355Z,2.60
2022-10-19T21:58:35.325Z,2.77
2022-10-19T22:02:04.348Z,2.80
2022-10-19T22:05:27.265Z,2.60
2022-10-19T22:08:43.501Z,2.83
2022-10-19T22:12:04.363Z,2.83
2022-10-19T22:15:33.274Z,2.60
2022-10-19T22:18:57.352Z,3.00
2022-10-19T22:22:15.323Z,2.97
2022-10-19T22:25:38.250Z,2.80
2022-10-19T22:28:57.201Z,2.93
2022-10-19T22:32:21.368Z,2.87
2022-10-19T22:35:47.361Z,3.13
2022-10-19T22:39:10.323Z,3.08
2022-10-19T22:43:11.218Z,3.15
2022-10-19T22:46:34.174Z,2.93
2022-10-19T22:49:54.886Z,2.97
2022-10-19T22:53:18.153Z,2.90
2022-10-19T22:56:54.176Z,2.90
2022-10-19T23:00:19.856Z,3.40
2022-10-19T23:03:29.681Z,3.00
2022-10-19T23:06:45.101Z,2.80
2022-10-19T23:10:20.116Z,2.92
2022-10-19T23:13:33.843Z,2.70
2022-10-19T23:16:57.600Z,2.70
2022-10-19T23:20:26.820Z,2.90
2022-10-19T23:23:49.082Z,2.97
2022-10-19T23:27:03.771Z,3.20
2022-10-19T23:30:07.786Z,3.30
2022-10-19T23:33:11.846Z,3.08
2022-10-19T23:36:24.804Z,3.00
2022-10-19T23:39:32.538Z,2.87
2022-10-19T23:42:36.384Z,2.83
2022-10-19T23:45:46.920Z,3.50
2022-10-19T23:49:06.053Z,3.08
2022-10-19T23:52:29.716Z,2.90
2022-10-19T23:55:46.854Z,2.93
2022-10-19T23:59:00.787Z,3.20
